sensor_id;sensor_type;location;lat;lon;timestamp;temperature;humidity
9466;DHT22;4771;48.726;9.006;2023-06-14T00:00:16;16.10;29.40
9466;DHT22;4771;48.726;9.006;2023-06-14T00:02:43;16.10;29.90
9466;DHT22;4771;48.726;9.006;2023-06-14T00:05:10;16.10;30.10
9466;DHT22;4771;48.726;9.006;2023-06-14T00:07:39;16.00;30.10
9466;DHT22;4771;48.726;9.006;2023-06-14T00:10:09;16.00;30.00
9466;DHT22;4771;48.726;9.006;2023-06-14T00:12:38;16.00;30.00
9466;DHT22;4771;48.726;9.006;2023-06-14T00:15:06;16.00;30.10
9466;DHT22;4771;48.726;9.006;2023-06-14T00:17:35;16.00;30.40
9466;DHT22;4771;48.726;9.006;2023-06-14T00:20:03;15.90;31.40
9466;DHT22;4771;48.726;9.006;2023-06-14T00:22:33;15.90;31.90
9466;DHT22;4771;48.726;9.006;2023-06-14T00:25:05;15.90;32.10
9466;DHT22;4771;48.726;9.006;2023-06-14T00:27:32;15.80;32.60
9466;DHT22;4771;48.726;9.006;2023-06-14T00:30:00;15.80;33.00
9466;DHT22;4771;48.726;9.006;2023-06-14T00:32:27;15.80;33.50
9466;DHT22;4771;48.726;9.006;2023-06-14T00:34:54;15.70;33.70
9466;DHT22;4771;48.726;9.006;2023-06-14T00:37:21;15.70;34.20
9466;DHT22;4771;48.726;9.006;2023-06-14T00:39:48;15.70;34.80
9466;DHT22;4771;48.726;9.006;2023-06-14T00:42:23;15.60;35.00
9466;DHT22;4771;48.726;9.006;2023-06-14T00:44:51;15.60;35.00
9466;DHT22;4771;48.726;9.006;2023-06-14T00:47:19;15.60;35.20
9466;DHT22;4771;48.726;9.006;2023-06-14T00:49:47;15.60;35.20
9466;DHT22;4771;48.726;9.006;2023-06-14T00:52:14;15.50;35.50
9466;DHT22;4771;48.726;9.006;2023-06-14T00:54:42;15.50;36.00
9466;DHT22;4771;48.726;9.006;2023-06-14T00:57:09;15.40;36.30
9466;DHT22;4771;48.726;9.006;2023-06-14T00:59:42;15.40;36.50
9466;DHT22;4771;48.726;9.006;2023-06-14T01:02:09;15.30;36.40
9466;DHT22;4771;48.726;9.006;2023-06-14T01:04:38;15.30;36.40
9466;DHT22;4771;48.726;9.006;2023-06-14T01:07:14;15.30;36.40
9466;DHT22;4771;48.726;9.006;2023-06-14T01:09:50;15.30;36.40
9466;DHT22;4771;48.726;9.006;2023-06-14T01:12:25;15.20;36.60
9466;DHT22;4771;48.726;9.006;2023-06-14T01:14:54;15.20;36.80
9466;DHT22;4771;48.726;9.006;2023-06-14T01:17:22;15.10;37.00
9466;DHT22;4771;48.726;9.006;2023-06-14T01:19:53;15.10;37.00
9466;DHT22;4771;48.726;9.006;2023-06-14T01:22:24;15.10;37.00
9466;DHT22;4771;48.726;9.006;2023-06-14T01:24:53;15.10;37.70
9466;DHT22;4771;48.726;9.006;2023-06-14T01:27:22;15.00;37.60
9466;DHT22;4771;48.726;9.006;2023-06-14T01:29:55;15.00;38.30
9466;DHT22;4771;48.726;9.006;2023-06-14T01:32:23;15.00;38.30
9466;DHT22;4771;48.726;9.006;2023-06-14T01:34:51;15.00;38.40
9466;DHT22;4771;48.726;9.006;2023-06-14T01:37:18;14.90;38.70
9466;DHT22;4771;48.726;9.006;2023-06-14T01:39:47;14.90;38.90
9466;DHT22;4771;48.726;9.006;2023-06-14T01:42:18;14.90;39.20
9466;DHT22;4771;48.726;9.006;2023-06-14T01:44:45;14.90;39.60
9466;DHT22;4771;48.726;9.006;2023-06-14T01:47:14;14.90;40.00
9466;DHT22;4771;48.726;9.006;2023-06-14T01:49:41;14.80;40.00
9466;DHT22;4771;48.726;9.006;2023-06-14T01:52:09;14.80;40.10
9466;DHT22;4771;48.726;9.006;2023-06-14T01:54:36;14.70;40.30
9466;DHT22;4771;48.726;9.006;2023-06-14T01:57:07;14.60;40.40
9466;DHT22;4771;48.726;9.006;2023-06-14T01:59:36;14.60;41.60
9466;DHT22;4771;48.726;9.006;2023-06-14T02:02:03;14.60;40.60
9466;DHT22;4771;48.726;9.006;2023-06-14T02:04:30;14.60;41.00
9466;DHT22;4771;48.726;9.006;2023-06-14T02:06:57;14.50;41.30
9466;DHT22;4771;48.726;9.006;2023-06-14T02:09:24;14.50;41.40
9466;DHT22;4771;48.726;9.006;2023-06-14T02:11:51;14.50;41.20
9466;DHT22;4771;48.726;9.006;2023-06-14T02:14:18;14.50;41.40
9466;DHT22;4771;48.726;9.006;2023-06-14T02:16:46;14.50;41.70
9466;DHT22;4771;48.726;9.006;2023-06-14T02:19:14;14.50;41.90
9466;DHT22;4771;48.726;9.006;2023-06-14T02:21:41;14.50;42.10
9466;DHT22;4771;48.726;9.006;2023-06-14T02:24:08;14.40;42.10
9466;DHT22;4771;48.726;9.006;2023-06-14T02:26:37;14.40;42.10
9466;DHT22;4771;48.726;9.006;2023-06-14T02:29:04;14.40;42.40
9466;DHT22;4771;48.726;9.006;2023-06-14T02:31:34;14.30;42.60
9466;DHT22;4771;48.726;9.006;2023-06-14T02:34:03;14.30;42.60
9466;DHT22;4771;48.726;9.006;2023-06-14T02:36:30;14.30;42.90
9466;DHT22;4771;48.726;9.006;2023-06-14T02:38:57;14.30;42.80
9466;DHT22;4771;48.726;9.006;2023-06-14T02:41:24;14.30;42.90
9466;DHT22;4771;48.726;9.006;2023-06-14T02:43:51;14.20;42.80
9466;DHT22;4771;48.726;9.006;2023-06-14T02:46:18;14.20;43.30
9466;DHT22;4771;48.726;9.006;2023-06-14T02:48:45;14.30;43.60
9466;DHT22;4771;48.726;9.006;2023-06-14T02:51:13;14.20;44.00
9466;DHT22;4771;48.726;9.006;2023-06-14T02:53:40;14.20;44.40
9466;DHT22;4771;48.726;9.006;2023-06-14T02:56:07;14.20;44.70
9466;DHT22;4771;48.726;9.006;2023-06-14T02:58:35;14.10;44.80
9466;DHT22;4771;48.726;9.006;2023-06-14T03:01:02;14.10;45.10
9466;DHT22;4771;48.726;9.006;2023-06-14T03:03:29;14.00;45.10
9466;DHT22;4771;48.726;9.006;2023-06-14T03:05:56;14.00;45.10
9466;DHT22;4771;48.726;9.006;2023-06-14T03:08:25;14.00;45.60
9466;DHT22;4771;48.726;9.006;2023-06-14T03:10:53;14.00;45.70
9466;DHT22;4771;48.726;9.006;2023-06-14T03:13:21;14.00;45.70
9466;DHT22;4771;48.726;9.006;2023-06-14T03:15:48;14.00;46.00
9466;DHT22;4771;48.726;9.006;2023-06-14T03:18:16;14.00;46.30
9466;DHT22;4771;48.726;9.006;2023-06-14T03:20:43;13.90;46.50
9466;DHT22;4771;48.726;9.006;2023-06-14T03:23:11;14.00;46.50
9466;DHT22;4771;48.726;9.006;2023-06-14T03:25:39;14.00;46.80
9466;DHT22;4771;48.726;9.006;2023-06-14T03:28:07;14.00;47.00
9466;DHT22;4771;48.726;9.006;2023-06-14T03:30:34;14.00;47.20
9466;DHT22;4771;48.726;9.006;2023-06-14T03:33:01;14.00;47.10
9466;DHT22;4771;48.726;9.006;2023-06-14T03:35:28;14.00;47.30
9466;DHT22;4771;48.726;9.006;2023-06-14T03:37:55;14.00;47.60
9466;DHT22;4771;48.726;9.006;2023-06-14T03:40:22;14.00;48.40
9466;DHT22;4771;48.726;9.006;2023-06-14T03:42:53;14.00;49.00
9466;DHT22;4771;48.726;9.006;2023-06-14T03:45:20;13.90;49.30
9466;DHT22;4771;48.726;9.006;2023-06-14T03:47:47;13.90;50.20
9466;DHT22;4771;48.726;9.006;2023-06-14T03:50:14;13.90;50.70
9466;DHT22;4771;48.726;9.006;2023-06-14T03:52:41;13.80;50.80
9466;DHT22;4771;48.726;9.006;2023-06-14T03:55:09;13.80;51.00
9466;DHT22;4771;48.726;9.006;2023-06-14T03:57:38;13.80;51.90
9466;DHT22;4771;48.726;9.006;2023-06-14T04:00:08;13.80;52.30
9466;DHT22;4771;48.726;9.006;2023-06-14T04:02:36;13.80;52.40
9466;DHT22;4771;48.726;9.006;2023-06-14T04:05:03;13.80;52.50
9466;DHT22;4771;48.726;9.006;2023-06-14T04:07:34;13.80;52.80
9466;DHT22;4771;48.726;9.006;2023-06-14T04:10:07;13.80;53.00
9466;DHT22;4771;48.726;9.006;2023-06-14T04:12:34;13.80;52.90
9466;DHT22;4771;48.726;9.006;2023-06-14T04:15:01;13.80;53.00
9466;DHT22;4771;48.726;9.006;2023-06-14T04:17:29;13.90;53.30
9466;DHT22;4771;48.726;9.006;2023-06-14T04:19:58;13.80;53.50
9466;DHT22;4771;48.726;9.006;2023-06-14T04:22:25;13.90;54.30
9466;DHT22;4771;48.726;9.006;2023-06-14T04:24:53;13.90;54.50
9466;DHT22;4771;48.726;9.006;2023-06-14T04:27:21;13.90;55.00
9466;DHT22;4771;48.726;9.006;2023-06-14T04:29:51;13.90;55.80
9466;DHT22;4771;48.726;9.006;2023-06-14T04:32:23;13.90;55.80
9466;DHT22;4771;48.726;9.006;2023-06-14T04:34:53;13.90;56.20
9466;DHT22;4771;48.726;9.006;2023-06-14T04:37:20;14.00;56.90
9466;DHT22;4771;48.726;9.006;2023-06-14T04:39:47;14.00;57.60
9466;DHT22;4771;48.726;9.006;2023-06-14T04:42:14;14.00;57.50
9466;DHT22;4771;48.726;9.006;2023-06-14T04:44:42;14.10;58.50
9466;DHT22;4771;48.726;9.006;2023-06-14T04:47:09;14.10;58.20
9466;DHT22;4771;48.726;9.006;2023-06-14T04:49:38;14.20;59.30
9466;DHT22;4771;48.726;9.006;2023-06-14T04:52:07;14.20;59.50
9466;DHT22;4771;48.726;9.006;2023-06-14T04:54:35;14.30;61.80
9466;DHT22;4771;48.726;9.006;2023-06-14T04:57:04;14.30;62.70
9466;DHT22;4771;48.726;9.006;2023-06-14T04:59:31;14.30;64.30
9466;DHT22;4771;48.726;9.006;2023-06-14T05:01:59;14.30;66.80
9466;DHT22;4771;48.726;9.006;2023-06-14T05:04:26;14.30;68.00
9466;DHT22;4771;48.726;9.006;2023-06-14T05:06:54;14.30;69.50
9466;DHT22;4771;48.726;9.006;2023-06-14T05:09:22;14.40;71.50
9466;DHT22;4771;48.726;9.006;2023-06-14T05:11:49;14.40;72.60
9466;DHT22;4771;48.726;9.006;2023-06-14T05:14:16;14.50;74.70
9466;DHT22;4771;48.726;9.006;2023-06-14T05:16:43;14.50;75.10
9466;DHT22;4771;48.726;9.006;2023-06-14T05:19:10;14.60;77.80
9466;DHT22;4771;48.726;9.006;2023-06-14T05:21:38;14.50;78.40
9466;DHT22;4771;48.726;9.006;2023-06-14T05:24:05;14.60;80.80
9466;DHT22;4771;48.726;9.006;2023-06-14T05:26:35;14.60;82.20
9466;DHT22;4771;48.726;9.006;2023-06-14T05:29:02;14.60;85.20
9466;DHT22;4771;48.726;9.006;2023-06-14T05:31:29;14.70;85.70
9466;DHT22;4771;48.726;9.006;2023-06-14T05:33:56;14.80;87.00
9466;DHT22;4771;48.726;9.006;2023-06-14T05:36:23;14.80;86.90
9466;DHT22;4771;48.726;9.006;2023-06-14T05:38:50;14.90;86.70
9466;DHT22;4771;48.726;9.006;2023-06-14T05:41:24;14.90;84.50
9466;DHT22;4771;48.726;9.006;2023-06-14T05:43:54;15.00;84.20
9466;DHT22;4771;48.726;9.006;2023-06-14T05:46:21;15.10;81.30
9466;DHT22;4771;48.726;9.006;2023-06-14T05:48:50;15.20;82.50
9466;DHT22;4771;48.726;9.006;2023-06-14T05:51:18;15.20;79.50
9466;DHT22;4771;48.726;9.006;2023-06-14T05:53:45;15.30;81.40
9466;DHT22;4771;48.726;9.006;2023-06-14T05:56:12;15.40;80.00
9466;DHT22;4771;48.726;9.006;2023-06-14T05:58:39;15.50;79.20
9466;DHT22;4771;48.726;9.006;2023-06-14T06:01:08;15.50;79.40
9466;DHT22;4771;48.726;9.006;2023-06-14T06:03:34;15.60;77.20
9466;DHT22;4771;48.726;9.006;2023-06-14T06:06:01;15.70;76.10
9466;DHT22;4771;48.726;9.006;2023-06-14T06:08:29;15.70;76.10
9466;DHT22;4771;48.726;9.006;2023-06-14T06:10:56;15.90;76.00
9466;DHT22;4771;48.726;9.006;2023-06-14T06:13:23;15.90;76.30
9466;DHT22;4771;48.726;9.006;2023-06-14T06:15:50;16.00;68.60
9466;DHT22;4771;48.726;9.006;2023-06-14T06:18:19;16.10;66.50
9466;DHT22;4771;48.726;9.006;2023-06-14T06:20:45;16.20;63.10
9466;DHT22;4771;48.726;9.006;2023-06-14T06:23:13;16.30;65.40
9466;DHT22;4771;48.726;9.006;2023-06-14T06:25:40;16.40;69.20
9466;DHT22;4771;48.726;9.006;2023-06-14T06:28:06;16.40;63.80
9466;DHT22;4771;48.726;9.006;2023-06-14T06:30:33;16.50;68.40
9466;DHT22;4771;48.726;9.006;2023-06-14T06:33:01;16.70;68.10
9466;DHT22;4771;48.726;9.006;2023-06-14T06:35:30;16.70;69.00
9466;DHT22;4771;48.726;9.006;2023-06-14T06:37:59;16.80;68.30
9466;DHT22;4771;48.726;9.006;2023-06-14T06:40:26;16.90;70.10
9466;DHT22;4771;48.726;9.006;2023-06-14T06:42:53;16.90;69.10
9466;DHT22;4771;48.726;9.006;2023-06-14T06:45:20;16.90;68.70
9466;DHT22;4771;48.726;9.006;2023-06-14T06:47:48;17.00;70.00
9466;DHT22;4771;48.726;9.006;2023-06-14T06:50:16;17.10;70.80
9466;DHT22;4771;48.726;9.006;2023-06-14T06:52:44;17.10;70.30
9466;DHT22;4771;48.726;9.006;2023-06-14T06:55:11;17.20;67.80
9466;DHT22;4771;48.726;9.006;2023-06-14T06:57:38;17.20;70.90
9466;DHT22;4771;48.726;9.006;2023-06-14T07:00:06;17.30;67.80
9466;DHT22;4771;48.726;9.006;2023-06-14T07:02:35;17.30;66.30
9466;DHT22;4771;48.726;9.006;2023-06-14T07:05:02;17.30;65.70
9466;DHT22;4771;48.726;9.006;2023-06-14T07:07:29;17.40;66.60
9466;DHT22;4771;48.726;9.006;2023-06-14T07:09:58;17.40;65.50
9466;DHT22;4771;48.726;9.006;2023-06-14T07:12:25;17.50;65.40
9466;DHT22;4771;48.726;9.006;2023-06-14T07:14:52;17.50;65.00
9466;DHT22;4771;48.726;9.006;2023-06-14T07:17:19;17.50;64.70
9466;DHT22;4771;48.726;9.006;2023-06-14T07:19:46;17.60;65.10
9466;DHT22;4771;48.726;9.006;2023-06-14T07:22:13;17.60;65.50
9466;DHT22;4771;48.726;9.006;2023-06-14T07:24:40;17.70;64.90
9466;DHT22;4771;48.726;9.006;2023-06-14T07:27:09;17.70;67.20
9466;DHT22;4771;48.726;9.006;2023-06-14T07:29:38;17.80;66.80
9466;DHT22;4771;48.726;9.006;2023-06-14T07:32:06;17.90;66.50
9466;DHT22;4771;48.726;9.006;2023-06-14T07:34:33;17.90;66.30
9466;DHT22;4771;48.726;9.006;2023-06-14T07:37:00;18.00;64.30
9466;DHT22;4771;48.726;9.006;2023-06-14T07:39:27;18.10;63.80
9466;DHT22;4771;48.726;9.006;2023-06-14T07:41:54;18.10;65.50
9466;DHT22;4771;48.726;9.006;2023-06-14T07:44:22;18.10;63.10
9466;DHT22;4771;48.726;9.006;2023-06-14T07:46:49;18.20;62.60
9466;DHT22;4771;48.726;9.006;2023-06-14T07:49:16;18.20;62.20
9466;DHT22;4771;48.726;9.006;2023-06-14T07:51:43;18.30;64.70
9466;DHT22;4771;48.726;9.006;2023-06-14T07:54:11;18.30;62.30
9466;DHT22;4771;48.726;9.006;2023-06-14T07:56:38;18.40;62.40
9466;DHT22;4771;48.726;9.006;2023-06-14T07:59:06;18.40;63.80
9466;DHT22;4771;48.726;9.006;2023-06-14T08:01:34;18.50;62.10
9466;DHT22;4771;48.726;9.006;2023-06-14T08:04:01;18.50;62.30
9466;DHT22;4771;48.726;9.006;2023-06-14T08:06:28;18.60;62.90
9466;DHT22;4771;48.726;9.006;2023-06-14T08:08:56;18.60;62.20
9466;DHT22;4771;48.726;9.006;2023-06-14T08:11:24;18.60;61.20
9466;DHT22;4771;48.726;9.006;2023-06-14T08:13:51;18.70;59.80
9466;DHT22;4771;48.726;9.006;2023-06-14T08:16:19;18.70;63.10
9466;DHT22;4771;48.726;9.006;2023-06-14T08:18:48;18.70;61.30
9466;DHT22;4771;48.726;9.006;2023-06-14T08:21:15;18.80;62.00
9466;DHT22;4771;48.726;9.006;2023-06-14T08:23:41;18.80;58.70
9466;DHT22;4771;48.726;9.006;2023-06-14T08:26:09;18.90;56.60
9466;DHT22;4771;48.726;9.006;2023-06-14T08:28:36;18.90;56.70
9466;DHT22;4771;48.726;9.006;2023-06-14T08:31:03;19.00;57.60
9466;DHT22;4771;48.726;9.006;2023-06-14T08:33:30;19.10;58.30
9466;DHT22;4771;48.726;9.006;2023-06-14T08:36:00;19.20;58.30
9466;DHT22;4771;48.726;9.006;2023-06-14T08:38:27;19.20;57.10
9466;DHT22;4771;48.726;9.006;2023-06-14T08:40:57;19.30;56.50
9466;DHT22;4771;48.726;9.006;2023-06-14T08:43:24;19.40;58.40
9466;DHT22;4771;48.726;9.006;2023-06-14T08:45:56;19.50;56.60
9466;DHT22;4771;48.726;9.006;2023-06-14T08:48:26;19.50;56.70
9466;DHT22;4771;48.726;9.006;2023-06-14T08:50:54;19.60;57.40
9466;DHT22;4771;48.726;9.006;2023-06-14T08:53:28;19.60;55.80
9466;DHT22;4771;48.726;9.006;2023-06-14T08:55:58;19.70;54.70
9466;DHT22;4771;48.726;9.006;2023-06-14T08:58:27;19.70;53.80
9466;DHT22;4771;48.726;9.006;2023-06-14T09:00:55;19.80;52.00
9466;DHT22;4771;48.726;9.006;2023-06-14T09:03:22;19.80;54.00
9466;DHT22;4771;48.726;9.006;2023-06-14T09:05:56;19.90;57.00
9466;DHT22;4771;48.726;9.006;2023-06-14T09:08:24;19.90;55.70
9466;DHT22;4771;48.726;9.006;2023-06-14T09:10:55;20.10;54.90
9466;DHT22;4771;48.726;9.006;2023-06-14T09:13:22;20.10;53.40
9466;DHT22;4771;48.726;9.006;2023-06-14T09:15:49;20.10;52.40
9466;DHT22;4771;48.726;9.006;2023-06-14T09:18:16;20.20;51.60
9466;DHT22;4771;48.726;9.006;2023-06-14T09:20:43;20.20;52.40
9466;DHT22;4771;48.726;9.006;2023-06-14T09:23:12;20.30;53.90
9466;DHT22;4771;48.726;9.006;2023-06-14T09:25:43;20.40;53.80
9466;DHT22;4771;48.726;9.006;2023-06-14T09:28:11;20.50;54.00
9466;DHT22;4771;48.726;9.006;2023-06-14T09:30:38;20.50;50.40
9466;DHT22;4771;48.726;9.006;2023-06-14T09:33:05;20.60;51.40
9466;DHT22;4771;48.726;9.006;2023-06-14T09:35:32;20.60;53.40
9466;DHT22;4771;48.726;9.006;2023-06-14T09:37:59;20.70;52.90
9466;DHT22;4771;48.726;9.006;2023-06-14T09:40:26;20.80;52.00
9466;DHT22;4771;48.726;9.006;2023-06-14T09:42:53;20.80;53.30
9466;DHT22;4771;48.726;9.006;2023-06-14T09:45:25;20.80;51.50
9466;DHT22;4771;48.726;9.006;2023-06-14T09:47:55;20.90;50.00
9466;DHT22;4771;48.726;9.006;2023-06-14T09:50:22;20.90;48.50
9466;DHT22;4771;48.726;9.006;2023-06-14T09:52:52;20.90;47.50
9466;DHT22;4771;48.726;9.006;2023-06-14T09:55:26;21.00;49.60
9466;DHT22;4771;48.726;9.006;2023-06-14T09:57:54;21.10;48.80
9466;DHT22;4771;48.726;9.006;2023-06-14T10:00:23;21.10;49.20
9466;DHT22;4771;48.726;9.006;2023-06-14T10:02:54;21.20;49.00
9466;DHT22;4771;48.726;9.006;2023-06-14T10:05:27;21.30;48.40
9466;DHT22;4771;48.726;9.006;2023-06-14T10:07:58;21.40;48.50
9466;DHT22;4771;48.726;9.006;2023-06-14T10:10:26;21.50;48.90
9466;DHT22;4771;48.726;9.006;2023-06-14T10:12:53;21.50;46.60
9466;DHT22;4771;48.726;9.006;2023-06-14T10:15:32;21.60;43.90
9466;DHT22;4771;48.726;9.006;2023-06-14T10:18:05;21.60;43.70
9466;DHT22;4771;48.726;9.006;2023-06-14T10:20:41;21.70;44.30
9466;DHT22;4771;48.726;9.006;2023-06-14T10:23:13;21.80;38.70
9466;DHT22;4771;48.726;9.006;2023-06-14T10:25:42;21.90;37.60
9466;DHT22;4771;48.726;9.006;2023-06-14T10:28:19;21.90;34.20
9466;DHT22;4771;48.726;9.006;2023-06-14T10:31:06;22.00;35.60
9466;DHT22;4771;48.726;9.006;2023-06-14T10:33:34;22.10;36.90
9466;DHT22;4771;48.726;9.006;2023-06-14T10:36:11;22.20;36.90
9466;DHT22;4771;48.726;9.006;2023-06-14T10:39:13;22.30;31.60
9466;DHT22;4771;48.726;9.006;2023-06-14T10:41:41;22.30;33.50
9466;DHT22;4771;48.726;9.006;2023-06-14T10:44:41;22.40;32.30
9466;DHT22;4771;48.726;9.006;2023-06-14T10:47:10;22.40;33.90
9466;DHT22;4771;48.726;9.006;2023-06-14T10:49:42;22.40;35.50
9466;DHT22;4771;48.726;9.006;2023-06-14T10:52:11;22.50;34.60
9466;DHT22;4771;48.726;9.006;2023-06-14T10:55:02;22.50;34.00
9466;DHT22;4771;48.726;9.006;2023-06-14T10:57:31;22.60;29.90
9466;DHT22;4771;48.726;9.006;2023-06-14T10:59:59;22.70;31.30
9466;DHT22;4771;48.726;9.006;2023-06-14T11:02:50;22.80;31.80
9466;DHT22;4771;48.726;9.006;2023-06-14T11:05:24;22.80;33.90
9466;DHT22;4771;48.726;9.006;2023-06-14T11:08:03;22.70;32.60
9466;DHT22;4771;48.726;9.006;2023-06-14T11:10:36;22.60;31.80
9466;DHT22;4771;48.726;9.006;2023-06-14T11:13:04;22.50;31.00
9466;DHT22;4771;48.726;9.006;2023-06-14T11:15:32;22.40;29.80
9466;DHT22;4771;48.726;9.006;2023-06-14T11:18:02;22.40;27.40
9466;DHT22;4771;48.726;9.006;2023-06-14T11:20:31;22.40;29.10
9466;DHT22;4771;48.726;9.006;2023-06-14T11:22:58;22.40;30.30
9466;DHT22;4771;48.726;9.006;2023-06-14T11:25:25;22.40;31.00
9466;DHT22;4771;48.726;9.006;2023-06-14T11:27:54;22.50;32.60
9466;DHT22;4771;48.726;9.006;2023-06-14T11:30:22;22.60;33.50
9466;DHT22;4771;48.726;9.006;2023-06-14T11:32:50;22.80;33.30
9466;DHT22;4771;48.726;9.006;2023-06-14T11:35:19;23.00;32.00
9466;DHT22;4771;48.726;9.006;2023-06-14T11:37:46;23.10;31.10
9466;DHT22;4771;48.726;9.006;2023-06-14T11:40:14;23.20;33.00
9466;DHT22;4771;48.726;9.006;2023-06-14T11:42:41;23.40;32.50
9466;DHT22;4771;48.726;9.006;2023-06-14T11:45:09;23.50;31.70
9466;DHT22;4771;48.726;9.006;2023-06-14T11:47:37;23.60;32.10
9466;DHT22;4771;48.726;9.006;2023-06-14T11:50:06;23.80;31.00
9466;DHT22;4771;48.726;9.006;2023-06-14T11:52:36;23.90;30.00
9466;DHT22;4771;48.726;9.006;2023-06-14T11:55:05;23.90;29.20
9466;DHT22;4771;48.726;9.006;2023-06-14T11:57:34;24.00;29.70
9466;DHT22;4771;48.726;9.006;2023-06-14T12:00:03;24.00;28.70
9466;DHT22;4771;48.726;9.006;2023-06-14T12:02:33;24.00;28.80
9466;DHT22;4771;48.726;9.006;2023-06-14T12:05:04;23.90;28.40
9466;DHT22;4771;48.726;9.006;2023-06-14T12:07:34;23.90;28.60
9466;DHT22;4771;48.726;9.006;2023-06-14T12:10:06;23.90;28.00
9466;DHT22;4771;48.726;9.006;2023-06-14T12:12:35;23.90;30.40
9466;DHT22;4771;48.726;9.006;2023-06-14T12:15:04;24.00;30.00
9466;DHT22;4771;48.726;9.006;2023-06-14T12:17:33;24.10;27.30
9466;DHT22;4771;48.726;9.006;2023-06-14T12:20:05;24.20;27.90
9466;DHT22;4771;48.726;9.006;2023-06-14T12:22:37;24.30;26.80
9466;DHT22;4771;48.726;9.006;2023-06-14T12:25:04;24.40;27.00
9466;DHT22;4771;48.726;9.006;2023-06-14T12:27:31;24.50;26.40
9466;DHT22;4771;48.726;9.006;2023-06-14T12:29:59;24.60;27.30
9466;DHT22;4771;48.726;9.006;2023-06-14T12:32:26;24.70;27.30
9466;DHT22;4771;48.726;9.006;2023-06-14T12:34:53;24.70;25.70
9466;DHT22;4771;48.726;9.006;2023-06-14T12:37:20;24.70;26.30
9466;DHT22;4771;48.726;9.006;2023-06-14T12:39:48;24.70;26.10
9466;DHT22;4771;48.726;9.006;2023-06-14T12:42:16;24.80;27.50
9466;DHT22;4771;48.726;9.006;2023-06-14T12:44:43;24.80;27.30
9466;DHT22;4771;48.726;9.006;2023-06-14T12:47:10;24.80;26.00
9466;DHT22;4771;48.726;9.006;2023-06-14T12:49:39;24.80;25.90
9466;DHT22;4771;48.726;9.006;2023-06-14T12:52:08;24.80;25.50
9466;DHT22;4771;48.726;9.006;2023-06-14T12:54:35;24.80;25.20
9466;DHT22;4771;48.726;9.006;2023-06-14T12:57:06;24.70;24.80
9466;DHT22;4771;48.726;9.006;2023-06-14T12:59:33;24.70;25.00
9466;DHT22;4771;48.726;9.006;2023-06-14T13:02:11;24.80;26.30
9466;DHT22;4771;48.726;9.006;2023-06-14T13:04:38;24.80;25.40
9466;DHT22;4771;48.726;9.006;2023-06-14T13:07:05;24.80;24.60
9466;DHT22;4771;48.726;9.006;2023-06-14T13:09:32;24.80;24.30
9466;DHT22;4771;48.726;9.006;2023-06-14T13:11:59;24.80;23.80
9466;DHT22;4771;48.726;9.006;2023-06-14T13:14:28;24.80;24.70
9466;DHT22;4771;48.726;9.006;2023-06-14T13:16:55;24.90;26.00
9466;DHT22;4771;48.726;9.006;2023-06-14T13:19:22;24.90;23.90
9466;DHT22;4771;48.726;9.006;2023-06-14T13:21:49;25.00;23.20
9466;DHT22;4771;48.726;9.006;2023-06-14T13:24:16;25.00;24.10
9466;DHT22;4771;48.726;9.006;2023-06-14T13:26:43;25.10;25.20
9466;DHT22;4771;48.726;9.006;2023-06-14T13:29:09;25.20;24.50
9466;DHT22;4771;48.726;9.006;2023-06-14T13:31:38;25.30;25.00
9466;DHT22;4771;48.726;9.006;2023-06-14T13:34:05;25.50;23.40
9466;DHT22;4771;48.726;9.006;2023-06-14T13:36:32;25.60;23.20
9466;DHT22;4771;48.726;9.006;2023-06-14T13:38:59;25.60;22.00
9466;DHT22;4771;48.726;9.006;2023-06-14T13:41:27;25.60;22.40
9466;DHT22;4771;48.726;9.006;2023-06-14T13:43:57;25.70;23.80
9466;DHT22;4771;48.726;9.006;2023-06-14T13:46:24;25.70;22.70
9466;DHT22;4771;48.726;9.006;2023-06-14T13:48:53;25.70;23.60
9466;DHT22;4771;48.726;9.006;2023-06-14T13:51:19;25.80;23.80
9466;DHT22;4771;48.726;9.006;2023-06-14T13:53:47;25.90;22.80
9466;DHT22;4771;48.726;9.006;2023-06-14T13:56:14;26.00;23.10
9466;DHT22;4771;48.726;9.006;2023-06-14T13:58:42;26.00;21.60
9466;DHT22;4771;48.726;9.006;2023-06-14T14:01:09;26.10;21.10
9466;DHT22;4771;48.726;9.006;2023-06-14T14:03:37;26.00;20.60
9466;DHT22;4771;48.726;9.006;2023-06-14T14:06:05;26.10;21.10
9466;DHT22;4771;48.726;9.006;2023-06-14T14:08:32;26.00;20.70
9466;DHT22;4771;48.726;9.006;2023-06-14T14:10:59;26.10;21.90
9466;DHT22;4771;48.726;9.006;2023-06-14T14:13:26;26.10;20.30
9466;DHT22;4771;48.726;9.006;2023-06-14T14:15:53;26.20;25.30
9466;DHT22;4771;48.726;9.006;2023-06-14T14:18:20;26.20;21.10
9466;DHT22;4771;48.726;9.006;2023-06-14T14:20:47;26.20;21.00
9466;DHT22;4771;48.726;9.006;2023-06-14T14:23:15;26.30;20.50
9466;DHT22;4771;48.726;9.006;2023-06-14T14:25:43;26.40;22.50
9466;DHT22;4771;48.726;9.006;2023-06-14T14:28:10;26.40;21.70
9466;DHT22;4771;48.726;9.006;2023-06-14T14:30:37;26.50;22.00
9466;DHT22;4771;48.726;9.006;2023-06-14T14:33:05;26.40;20.20
9466;DHT22;4771;48.726;9.006;2023-06-14T14:35:33;26.40;21.50
9466;DHT22;4771;48.726;9.006;2023-06-14T14:37:59;26.40;21.30
9466;DHT22;4771;48.726;9.006;2023-06-14T14:40:30;26.40;20.50
9466;DHT22;4771;48.726;9.006;2023-06-14T14:42:57;26.40;20.70
9466;DHT22;4771;48.726;9.006;2023-06-14T14:45:24;26.40;21.30
9466;DHT22;4771;48.726;9.006;2023-06-14T14:47:50;26.40;20.70
9466;DHT22;4771;48.726;9.006;2023-06-14T14:50:17;26.40;20.90
9466;DHT22;4771;48.726;9.006;2023-06-14T14:52:44;26.40;19.30
9466;DHT22;4771;48.726;9.006;2023-06-14T14:55:11;26.40;19.80
9466;DHT22;4771;48.726;9.006;2023-06-14T14:57:40;26.30;20.10
9466;DHT22;4771;48.726;9.006;2023-06-14T15:00:07;26.30;22.10
9466;DHT22;4771;48.726;9.006;2023-06-14T15:02:34;26.30;21.30
9466;DHT22;4771;48.726;9.006;2023-06-14T15:05:02;26.30;22.60
9466;DHT22;4771;48.726;9.006;2023-06-14T15:07:30;26.40;22.00
9466;DHT22;4771;48.726;9.006;2023-06-14T15:09:57;26.50;22.00
9466;DHT22;4771;48.726;9.006;2023-06-14T15:12:24;26.40;21.80
9466;DHT22;4771;48.726;9.006;2023-06-14T15:14:52;26.40;22.00
9466;DHT22;4771;48.726;9.006;2023-06-14T15:17:20;26.40;22.60
9466;DHT22;4771;48.726;9.006;2023-06-14T15:19:47;26.40;22.50
9466;DHT22;4771;48.726;9.006;2023-06-14T15:22:14;26.40;22.70
9466;DHT22;4771;48.726;9.006;2023-06-14T15:24:41;26.40;22.60
9466;DHT22;4771;48.726;9.006;2023-06-14T15:27:08;26.40;22.10
9466;DHT22;4771;48.726;9.006;2023-06-14T15:29:36;26.40;22.60
9466;DHT22;4771;48.726;9.006;2023-06-14T15:32:06;26.30;22.20
9466;DHT22;4771;48.726;9.006;2023-06-14T15:34:34;26.20;22.40
9466;DHT22;4771;48.726;9.006;2023-06-14T15:37:00;26.20;22.30
9466;DHT22;4771;48.726;9.006;2023-06-14T15:39:28;26.10;21.80
9466;DHT22;4771;48.726;9.006;2023-06-14T15:41:56;26.10;22.20
9466;DHT22;4771;48.726;9.006;2023-06-14T15:44:22;26.00;22.50
9466;DHT22;4771;48.726;9.006;2023-06-14T15:46:49;26.00;21.90
9466;DHT22;4771;48.726;9.006;2023-06-14T15:49:18;25.90;22.60
9466;DHT22;4771;48.726;9.006;2023-06-14T15:51:45;25.80;22.70
9466;DHT22;4771;48.726;9.006;2023-06-14T15:54:12;25.70;21.60
9466;DHT22;4771;48.726;9.006;2023-06-14T15:56:39;25.60;22.20
9466;DHT22;4771;48.726;9.006;2023-06-14T15:59:06;25.50;22.40
9466;DHT22;4771;48.726;9.006;2023-06-14T16:01:33;25.50;22.00
9466;DHT22;4771;48.726;9.006;2023-06-14T16:04:00;25.40;22.20
9466;DHT22;4771;48.726;9.006;2023-06-14T16:06:28;25.30;22.10
9466;DHT22;4771;48.726;9.006;2023-06-14T16:08:55;25.30;23.20